Аэропорт: Атырау. Атырау

ICAO: UATG

METAR:
2019-11-21 01:30:00
UATG 210130Z 06007MPS CAVOK M17/M21 Q1042 R32/CLRD70 NOSIG RMK QFE783/1045
METAR:
2019-11-20 23:00:00
TAF UATG 202300Z 2100/2124 06011MPS 9999 SCT033CB TXM07/2110Z TNM18/2103Z BECMG 2113/2115 04006MPS